sensor_id;sensor_type;location;lat;lon;timestamp;P1;durP1;ratioP1;P2;durP2;ratioP2
44995;SDS011;30729;49.486;10.792;2022-10-31T00:00:54;13.68;;;5.00;;
44995;SDS011;30729;49.486;10.792;2022-10-31T00:03:19;9.93;;;4.30;;
44995;SDS011;30729;49.486;10.792;2022-10-31T00:05:45;10.25;;;4.97;;
44995;SDS011;30729;49.486;10.792;2022-10-31T00:08:13;8.13;;;4.90;;
44995;SDS011;30729;49.486;10.792;2022-10-31T00:10:39;9.20;;;4.50;;
44995;SDS011;30729;49.486;10.792;2022-10-31T00:13:06;11.00;;;5.53;;
44995;SDS011;30729;49.486;10.792;2022-10-31T00:15:33;11.35;;;5.55;;
44995;SDS011;30729;49.486;10.792;2022-10-31T00:18:02;9.35;;;5.18;;
44995;SDS011;30729;49.486;10.792;2022-10-31T00:20:28;12.13;;;5.53;;
44995;SDS011;30729;49.486;10.792;2022-10-31T00:22:56;8.18;;;4.95;;
44995;SDS011;30729;49.486;10.792;2022-10-31T00:25:23;12.00;;;4.82;;
44995;SDS011;30729;49.486;10.792;2022-10-31T00:27:48;9.02;;;4.80;;
44995;SDS011;30729;49.486;10.792;2022-10-31T00:30:13;8.85;;;4.70;;
44995;SDS011;30729;49.486;10.792;2022-10-31T00:32:39;7.40;;;4.53;;
44995;SDS011;30729;49.486;10.792;2022-10-31T00:35:04;7.15;;;4.38;;
44995;SDS011;30729;49.486;10.792;2022-10-31T00:37:30;9.95;;;4.30;;
44995;SDS011;30729;49.486;10.792;2022-10-31T00:39:55;6.47;;;4.00;;
44995;SDS011;30729;49.486;10.792;2022-10-31T00:42:21;6.95;;;3.95;;
44995;SDS011;30729;49.486;10.792;2022-10-31T00:44:46;6.25;;;3.92;;
44995;SDS011;30729;49.486;10.792;2022-10-31T00:47:11;7.72;;;4.07;;
44995;SDS011;30729;49.486;10.792;2022-10-31T00:49:37;6.35;;;3.70;;
44995;SDS011;30729;49.486;10.792;2022-10-31T00:52:02;5.72;;;3.47;;
44995;SDS011;30729;49.486;10.792;2022-10-31T00:54:27;6.15;;;3.80;;
44995;SDS011;30729;49.486;10.792;2022-10-31T00:56:53;6.70;;;3.83;;
44995;SDS011;30729;49.486;10.792;2022-10-31T00:59:18;5.97;;;3.67;;
44995;SDS011;30729;49.486;10.792;2022-10-31T01:01:43;7.20;;;4.00;;
44995;SDS011;30729;49.486;10.792;2022-10-31T01:04:09;6.40;;;3.58;;
44995;SDS011;30729;49.486;10.792;2022-10-31T01:06:34;8.77;;;4.70;;
44995;SDS011;30729;49.486;10.792;2022-10-31T01:08:59;7.57;;;4.32;;
44995;SDS011;30729;49.486;10.792;2022-10-31T01:11:25;8.20;;;4.50;;
44995;SDS011;30729;49.486;10.792;2022-10-31T01:13:51;8.05;;;4.93;;
44995;SDS011;30729;49.486;10.792;2022-10-31T01:16:18;10.95;;;4.60;;
44995;SDS011;30729;49.486;10.792;2022-10-31T01:18:46;11.52;;;5.10;;
44995;SDS011;30729;49.486;10.792;2022-10-31T01:21:12;10.45;;;5.13;;
44995;SDS011;30729;49.486;10.792;2022-10-31T01:23:40;8.05;;;4.78;;
44995;SDS011;30729;49.486;10.792;2022-10-31T01:28:36;11.40;;;4.85;;
44995;SDS011;30729;49.486;10.792;2022-10-31T01:31:07;10.50;;;4.78;;
44995;SDS011;30729;49.486;10.792;2022-10-31T01:33:34;8.32;;;4.50;;
44995;SDS011;30729;49.486;10.792;2022-10-31T01:36:00;10.30;;;4.30;;
44995;SDS011;30729;49.486;10.792;2022-10-31T01:38:25;7.70;;;4.22;;
44995;SDS011;30729;49.486;10.792;2022-10-31T01:40:51;12.05;;;4.28;;
44995;SDS011;30729;49.486;10.792;2022-10-31T01:43:17;7.75;;;4.43;;
44995;SDS011;30729;49.486;10.792;2022-10-31T01:45:43;6.78;;;4.00;;
44995;SDS011;30729;49.486;10.792;2022-10-31T01:48:15;9.35;;;4.10;;
44995;SDS011;30729;49.486;10.792;2022-10-31T01:50:44;8.75;;;4.68;;
44995;SDS011;30729;49.486;10.792;2022-10-31T01:53:13;8.52;;;3.80;;
44995;SDS011;30729;49.486;10.792;2022-10-31T01:55:41;8.40;;;4.45;;
44995;SDS011;30729;49.486;10.792;2022-10-31T01:58:20;7.45;;;4.03;;
44995;SDS011;30729;49.486;10.792;2022-10-31T02:00:51;7.55;;;4.07;;
44995;SDS011;30729;49.486;10.792;2022-10-31T02:03:19;7.35;;;4.22;;
44995;SDS011;30729;49.486;10.792;2022-10-31T02:05:47;8.75;;;4.30;;
44995;SDS011;30729;49.486;10.792;2022-10-31T02:08:14;7.28;;;3.65;;
44995;SDS011;30729;49.486;10.792;2022-10-31T02:10:44;7.72;;;3.85;;
44995;SDS011;30729;49.486;10.792;2022-10-31T02:13:10;7.53;;;4.00;;
44995;SDS011;30729;49.486;10.792;2022-10-31T02:15:37;7.30;;;4.38;;
44995;SDS011;30729;49.486;10.792;2022-10-31T02:18:05;7.82;;;3.58;;
44995;SDS011;30729;49.486;10.792;2022-10-31T02:20:32;7.30;;;4.22;;
44995;SDS011;30729;49.486;10.792;2022-10-31T02:34:48;6.97;;;3.80;;
44995;SDS011;30729;49.486;10.792;2022-10-31T02:37:25;6.50;;;3.70;;
44995;SDS011;30729;49.486;10.792;2022-10-31T02:47:53;7.60;;;4.03;;
44995;SDS011;30729;49.486;10.792;2022-10-31T02:50:25;10.70;;;4.00;;
44995;SDS011;30729;49.486;10.792;2022-10-31T02:52:55;7.75;;;3.85;;
44995;SDS011;30729;49.486;10.792;2022-10-31T02:57:52;8.80;;;4.80;;
44995;SDS011;30729;49.486;10.792;2022-10-31T03:00:22;7.75;;;4.15;;
44995;SDS011;30729;49.486;10.792;2022-10-31T03:10:56;9.70;;;3.97;;
44995;SDS011;30729;49.486;10.792;2022-10-31T03:15:56;8.80;;;3.80;;
44995;SDS011;30729;49.486;10.792;2022-10-31T03:18:37;8.75;;;4.20;;
44995;SDS011;30729;49.486;10.792;2022-10-31T03:24:02;13.52;;;4.55;;
44995;SDS011;30729;49.486;10.792;2022-10-31T03:26:31;9.10;;;4.72;;
44995;SDS011;30729;49.486;10.792;2022-10-31T03:29:01;9.70;;;4.50;;
44995;SDS011;30729;49.486;10.792;2022-10-31T03:31:32;10.25;;;4.50;;
44995;SDS011;30729;49.486;10.792;2022-10-31T03:34:00;8.77;;;4.55;;
44995;SDS011;30729;49.486;10.792;2022-10-31T03:36:28;9.50;;;4.53;;
44995;SDS011;30729;49.486;10.792;2022-10-31T03:38:57;8.07;;;4.25;;
44995;SDS011;30729;49.486;10.792;2022-10-31T03:41:25;7.15;;;3.88;;
44995;SDS011;30729;49.486;10.792;2022-10-31T03:44:02;7.18;;;3.65;;
44995;SDS011;30729;49.486;10.792;2022-10-31T03:46:33;7.07;;;3.83;;
44995;SDS011;30729;49.486;10.792;2022-10-31T03:48:59;11.20;;;4.40;;
44995;SDS011;30729;49.486;10.792;2022-10-31T03:51:26;17.45;;;4.72;;
44995;SDS011;30729;49.486;10.792;2022-10-31T03:54:46;16.17;;;4.75;;
44995;SDS011;30729;49.486;10.792;2022-10-31T03:56:58;8.38;;;4.70;;
44995;SDS011;30729;49.486;10.792;2022-10-31T03:59:33;8.27;;;4.03;;
44995;SDS011;30729;49.486;10.792;2022-10-31T04:02:05;7.43;;;4.32;;
44995;SDS011;30729;49.486;10.792;2022-10-31T04:04:33;7.13;;;4.13;;
44995;SDS011;30729;49.486;10.792;2022-10-31T04:07:00;7.30;;;3.92;;
44995;SDS011;30729;49.486;10.792;2022-10-31T04:09:27;7.53;;;3.70;;
44995;SDS011;30729;49.486;10.792;2022-10-31T04:11:58;10.27;;;4.18;;
44995;SDS011;30729;49.486;10.792;2022-10-31T04:14:26;7.43;;;3.92;;
44995;SDS011;30729;49.486;10.792;2022-10-31T04:16:54;9.25;;;4.07;;
44995;SDS011;30729;49.486;10.792;2022-10-31T04:19:19;9.02;;;4.75;;
44995;SDS011;30729;49.486;10.792;2022-10-31T04:21:45;12.23;;;5.22;;
44995;SDS011;30729;49.486;10.792;2022-10-31T04:24:10;10.02;;;4.53;;
44995;SDS011;30729;49.486;10.792;2022-10-31T04:26:36;9.82;;;4.28;;
44995;SDS011;30729;49.486;10.792;2022-10-31T04:29:02;7.97;;;4.20;;
44995;SDS011;30729;49.486;10.792;2022-10-31T04:31:27;11.00;;;3.95;;
44995;SDS011;30729;49.486;10.792;2022-10-31T04:33:53;10.13;;;4.10;;
44995;SDS011;30729;49.486;10.792;2022-10-31T04:36:19;12.52;;;4.35;;
44995;SDS011;30729;49.486;10.792;2022-10-31T04:38:45;10.15;;;4.68;;
44995;SDS011;30729;49.486;10.792;2022-10-31T04:41:10;9.85;;;4.40;;
44995;SDS011;30729;49.486;10.792;2022-10-31T04:43:35;11.52;;;5.28;;
44995;SDS011;30729;49.486;10.792;2022-10-31T04:46:01;12.25;;;4.32;;
44995;SDS011;30729;49.486;10.792;2022-10-31T04:48:27;9.68;;;4.80;;
44995;SDS011;30729;49.486;10.792;2022-10-31T04:50:52;10.35;;;4.78;;
44995;SDS011;30729;49.486;10.792;2022-10-31T04:53:17;9.93;;;4.68;;
44995;SDS011;30729;49.486;10.792;2022-10-31T04:55:43;8.90;;;4.25;;
44995;SDS011;30729;49.486;10.792;2022-10-31T04:58:08;12.25;;;4.38;;
44995;SDS011;30729;49.486;10.792;2022-10-31T05:00:33;8.77;;;4.70;;
44995;SDS011;30729;49.486;10.792;2022-10-31T05:02:59;11.23;;;4.95;;
44995;SDS011;30729;49.486;10.792;2022-10-31T05:05:25;8.75;;;4.75;;
44995;SDS011;30729;49.486;10.792;2022-10-31T05:07:53;9.60;;;5.03;;
44995;SDS011;30729;49.486;10.792;2022-10-31T05:10:19;7.50;;;4.28;;
44995;SDS011;30729;49.486;10.792;2022-10-31T05:12:47;7.45;;;3.50;;
44995;SDS011;30729;49.486;10.792;2022-10-31T05:15:14;8.50;;;3.85;;
44995;SDS011;30729;49.486;10.792;2022-10-31T05:17:40;10.82;;;4.45;;
44995;SDS011;30729;49.486;10.792;2022-10-31T05:20:06;8.77;;;4.22;;
44995;SDS011;30729;49.486;10.792;2022-10-31T05:22:31;6.85;;;3.22;;
44995;SDS011;30729;49.486;10.792;2022-10-31T05:24:57;7.22;;;3.67;;
44995;SDS011;30729;49.486;10.792;2022-10-31T05:27:22;8.32;;;4.13;;
44995;SDS011;30729;49.486;10.792;2022-10-31T05:29:47;6.72;;;4.00;;
44995;SDS011;30729;49.486;10.792;2022-10-31T05:32:13;8.95;;;3.80;;
44995;SDS011;30729;49.486;10.792;2022-10-31T05:34:38;6.97;;;3.42;;
44995;SDS011;30729;49.486;10.792;2022-10-31T05:37:03;8.82;;;3.88;;
44995;SDS011;30729;49.486;10.792;2022-10-31T05:39:29;7.65;;;3.78;;
44995;SDS011;30729;49.486;10.792;2022-10-31T05:41:54;7.45;;;4.20;;
44995;SDS011;30729;49.486;10.792;2022-10-31T05:44:20;6.25;;;3.40;;
44995;SDS011;30729;49.486;10.792;2022-10-31T05:46:46;8.07;;;3.58;;
44995;SDS011;30729;49.486;10.792;2022-10-31T05:49:11;6.63;;;3.90;;
44995;SDS011;30729;49.486;10.792;2022-10-31T05:51:37;8.18;;;4.18;;
44995;SDS011;30729;49.486;10.792;2022-10-31T05:54:02;8.80;;;4.15;;
44995;SDS011;30729;49.486;10.792;2022-10-31T05:56:28;8.65;;;3.72;;
44995;SDS011;30729;49.486;10.792;2022-10-31T05:58:53;9.45;;;3.75;;
44995;SDS011;30729;49.486;10.792;2022-10-31T06:01:19;7.85;;;4.03;;
44995;SDS011;30729;49.486;10.792;2022-10-31T06:03:44;7.78;;;4.00;;
44995;SDS011;30729;49.486;10.792;2022-10-31T06:06:10;8.27;;;4.60;;
44995;SDS011;30729;49.486;10.792;2022-10-31T06:08:35;12.40;;;4.57;;
44995;SDS011;30729;49.486;10.792;2022-10-31T06:11:01;9.15;;;4.78;;
44995;SDS011;30729;49.486;10.792;2022-10-31T06:13:26;13.45;;;5.10;;
44995;SDS011;30729;49.486;10.792;2022-10-31T06:15:51;10.02;;;5.28;;
44995;SDS011;30729;49.486;10.792;2022-10-31T06:18:17;11.45;;;5.85;;
44995;SDS011;30729;49.486;10.792;2022-10-31T06:20:42;11.05;;;6.45;;
44995;SDS011;30729;49.486;10.792;2022-10-31T06:23:07;11.35;;;7.20;;
44995;SDS011;30729;49.486;10.792;2022-10-31T06:25:33;13.27;;;7.10;;
44995;SDS011;30729;49.486;10.792;2022-10-31T06:28:00;13.38;;;8.05;;
44995;SDS011;30729;49.486;10.792;2022-10-31T06:30:25;21.00;;;10.77;;
44995;SDS011;30729;49.486;10.792;2022-10-31T06:32:51;17.63;;;10.23;;
44995;SDS011;30729;49.486;10.792;2022-10-31T06:35:17;19.30;;;10.55;;
44995;SDS011;30729;49.486;10.792;2022-10-31T06:37:42;25.50;;;14.15;;
44995;SDS011;30729;49.486;10.792;2022-10-31T06:40:08;26.83;;;14.43;;
44995;SDS011;30729;49.486;10.792;2022-10-31T06:42:34;25.33;;;14.43;;
44995;SDS011;30729;49.486;10.792;2022-10-31T06:44:59;24.42;;;12.77;;
44995;SDS011;30729;49.486;10.792;2022-10-31T06:47:24;21.02;;;11.38;;
44995;SDS011;30729;49.486;10.792;2022-10-31T06:49:50;16.33;;;8.95;;
44995;SDS011;30729;49.486;10.792;2022-10-31T06:52:15;16.30;;;9.57;;
44995;SDS011;30729;49.486;10.792;2022-10-31T06:54:41;19.88;;;8.40;;
44995;SDS011;30729;49.486;10.792;2022-10-31T06:57:06;17.30;;;8.68;;
44995;SDS011;30729;49.486;10.792;2022-10-31T06:59:33;17.25;;;8.90;;
44995;SDS011;30729;49.486;10.792;2022-10-31T07:01:58;17.50;;;8.88;;
44995;SDS011;30729;49.486;10.792;2022-10-31T07:04:24;14.32;;;6.28;;
44995;SDS011;30729;49.486;10.792;2022-10-31T07:06:52;11.50;;;7.10;;
44995;SDS011;30729;49.486;10.792;2022-10-31T07:09:17;10.20;;;5.30;;
44995;SDS011;30729;49.486;10.792;2022-10-31T07:11:43;7.90;;;4.25;;
44995;SDS011;30729;49.486;10.792;2022-10-31T07:14:08;8.60;;;4.85;;
44995;SDS011;30729;49.486;10.792;2022-10-31T07:16:33;8.60;;;4.72;;
44995;SDS011;30729;49.486;10.792;2022-10-31T07:18:59;9.00;;;4.45;;
44995;SDS011;30729;49.486;10.792;2022-10-31T07:21:24;8.98;;;4.85;;
44995;SDS011;30729;49.486;10.792;2022-10-31T07:23:49;9.65;;;5.15;;
44995;SDS011;30729;49.486;10.792;2022-10-31T07:26:15;9.73;;;5.07;;
44995;SDS011;30729;49.486;10.792;2022-10-31T07:28:40;11.30;;;5.38;;
44995;SDS011;30729;49.486;10.792;2022-10-31T07:31:05;11.57;;;5.07;;
44995;SDS011;30729;49.486;10.792;2022-10-31T07:33:31;11.10;;;5.85;;
44995;SDS011;30729;49.486;10.792;2022-10-31T07:35:56;11.80;;;6.63;;
44995;SDS011;30729;49.486;10.792;2022-10-31T07:38:21;14.10;;;7.25;;
44995;SDS011;30729;49.486;10.792;2022-10-31T07:40:51;12.32;;;7.00;;
44995;SDS011;30729;49.486;10.792;2022-10-31T07:43:20;11.30;;;6.95;;
44995;SDS011;30729;49.486;10.792;2022-10-31T07:45:51;12.73;;;7.07;;
44995;SDS011;30729;49.486;10.792;2022-10-31T07:48:17;14.02;;;7.60;;
44995;SDS011;30729;49.486;10.792;2022-10-31T07:50:43;13.25;;;6.57;;
44995;SDS011;30729;49.486;10.792;2022-10-31T07:53:10;11.32;;;5.53;;
44995;SDS011;30729;49.486;10.792;2022-10-31T07:55:36;8.57;;;5.53;;
44995;SDS011;30729;49.486;10.792;2022-10-31T08:00:29;16.65;;;7.70;;
44995;SDS011;30729;49.486;10.792;2022-10-31T08:03:02;13.15;;;6.30;;
44995;SDS011;30729;49.486;10.792;2022-10-31T08:05:29;14.60;;;7.18;;
44995;SDS011;30729;49.486;10.792;2022-10-31T08:07:55;13.73;;;6.50;;
44995;SDS011;30729;49.486;10.792;2022-10-31T08:10:22;12.57;;;7.28;;
44995;SDS011;30729;49.486;10.792;2022-10-31T08:12:54;10.50;;;6.10;;
44995;SDS011;30729;49.486;10.792;2022-10-31T08:15:21;9.77;;;5.95;;
44995;SDS011;30729;49.486;10.792;2022-10-31T08:17:46;8.88;;;4.95;;
44995;SDS011;30729;49.486;10.792;2022-10-31T08:20:11;11.35;;;5.40;;
44995;SDS011;30729;49.486;10.792;2022-10-31T08:22:37;10.90;;;5.32;;
44995;SDS011;30729;49.486;10.792;2022-10-31T08:25:02;11.90;;;5.03;;
44995;SDS011;30729;49.486;10.792;2022-10-31T08:27:28;8.93;;;5.28;;
44995;SDS011;30729;49.486;10.792;2022-10-31T08:29:53;13.18;;;5.60;;
44995;SDS011;30729;49.486;10.792;2022-10-31T08:32:18;9.10;;;5.07;;
44995;SDS011;30729;49.486;10.792;2022-10-31T08:34:44;14.65;;;6.38;;
44995;SDS011;30729;49.486;10.792;2022-10-31T08:37:09;9.35;;;5.53;;
44995;SDS011;30729;49.486;10.792;2022-10-31T08:39:35;9.52;;;5.55;;
44995;SDS011;30729;49.486;10.792;2022-10-31T08:42:00;11.85;;;6.28;;
44995;SDS011;30729;49.486;10.792;2022-10-31T08:44:25;12.95;;;6.25;;
44995;SDS011;30729;49.486;10.792;2022-10-31T08:46:51;10.05;;;5.28;;
44995;SDS011;30729;49.486;10.792;2022-10-31T08:49:16;9.70;;;5.60;;
44995;SDS011;30729;49.486;10.792;2022-10-31T08:51:41;10.35;;;5.63;;
44995;SDS011;30729;49.486;10.792;2022-10-31T08:54:07;9.38;;;5.95;;
44995;SDS011;30729;49.486;10.792;2022-10-31T08:56:32;11.88;;;7.10;;
44995;SDS011;30729;49.486;10.792;2022-10-31T08:58:58;11.32;;;6.63;;
44995;SDS011;30729;49.486;10.792;2022-10-31T09:01:23;12.20;;;7.15;;
44995;SDS011;30729;49.486;10.792;2022-10-31T09:03:48;13.23;;;7.72;;
44995;SDS011;30729;49.486;10.792;2022-10-31T09:06:14;14.43;;;7.93;;
44995;SDS011;30729;49.486;10.792;2022-10-31T09:08:39;15.50;;;8.90;;
44995;SDS011;30729;49.486;10.792;2022-10-31T09:11:04;17.58;;;9.60;;
44995;SDS011;30729;49.486;10.792;2022-10-31T09:13:31;13.30;;;7.97;;
44995;SDS011;30729;49.486;10.792;2022-10-31T09:15:57;14.93;;;7.68;;
44995;SDS011;30729;49.486;10.792;2022-10-31T09:18:24;17.00;;;8.07;;
44995;SDS011;30729;49.486;10.792;2022-10-31T09:20:49;15.43;;;9.63;;
44995;SDS011;30729;49.486;10.792;2022-10-31T09:23:16;17.48;;;9.48;;
44995;SDS011;30729;49.486;10.792;2022-10-31T09:25:43;16.27;;;9.73;;
44995;SDS011;30729;49.486;10.792;2022-10-31T09:28:15;16.30;;;9.68;;
44995;SDS011;30729;49.486;10.792;2022-10-31T09:30:42;13.98;;;8.40;;
44995;SDS011;30729;49.486;10.792;2022-10-31T09:33:11;12.40;;;8.25;;
44995;SDS011;30729;49.486;10.792;2022-10-31T09:35:38;12.35;;;8.25;;
44995;SDS011;30729;49.486;10.792;2022-10-31T09:38:04;16.02;;;9.18;;
44995;SDS011;30729;49.486;10.792;2022-10-31T09:40:38;13.68;;;9.20;;
44995;SDS011;30729;49.486;10.792;2022-10-31T09:46:04;12.57;;;7.70;;
44995;SDS011;30729;49.486;10.792;2022-10-31T09:51:37;10.73;;;7.32;;
44995;SDS011;30729;49.486;10.792;2022-10-31T09:54:18;11.77;;;7.85;;
44995;SDS011;30729;49.486;10.792;2022-10-31T09:56:46;12.02;;;7.22;;
44995;SDS011;30729;49.486;10.792;2022-10-31T09:59:17;14.93;;;8.23;;
44995;SDS011;30729;49.486;10.792;2022-10-31T10:05:08;14.18;;;9.15;;
44995;SDS011;30729;49.486;10.792;2022-10-31T10:26:19;19.33;;;12.57;;
44995;SDS011;30729;49.486;10.792;2022-10-31T10:31:47;19.33;;;12.73;;
44995;SDS011;30729;49.486;10.792;2022-10-31T10:34:19;18.02;;;11.70;;
44995;SDS011;30729;49.486;10.792;2022-10-31T10:37:00;16.02;;;9.95;;
44995;SDS011;30729;49.486;10.792;2022-10-31T10:39:40;15.35;;;9.65;;
44995;SDS011;30729;49.486;10.792;2022-10-31T10:42:10;15.63;;;9.77;;
44995;SDS011;30729;49.486;10.792;2022-10-31T10:44:57;19.00;;;9.73;;
44995;SDS011;30729;49.486;10.792;2022-10-31T10:47:42;19.42;;;11.07;;
44995;SDS011;30729;49.486;10.792;2022-10-31T10:52:48;16.88;;;10.40;;
44995;SDS011;30729;49.486;10.792;2022-10-31T10:58:09;15.73;;;10.75;;
44995;SDS011;30729;49.486;10.792;2022-10-31T11:00:39;16.08;;;11.25;;
44995;SDS011;30729;49.486;10.792;2022-10-31T11:03:13;13.85;;;9.88;;
44995;SDS011;30729;49.486;10.792;2022-10-31T11:05:44;15.32;;;8.88;;
44995;SDS011;30729;49.486;10.792;2022-10-31T11:11:00;13.43;;;8.77;;
44995;SDS011;30729;49.486;10.792;2022-10-31T11:13:26;14.73;;;9.60;;
44995;SDS011;30729;49.486;10.792;2022-10-31T11:15:59;14.43;;;9.20;;
44995;SDS011;30729;49.486;10.792;2022-10-31T11:18:31;16.83;;;9.23;;
44995;SDS011;30729;49.486;10.792;2022-10-31T11:21:00;12.23;;;8.10;;
44995;SDS011;30729;49.486;10.792;2022-10-31T11:23:28;14.20;;;9.55;;
44995;SDS011;30729;49.486;10.792;2022-10-31T11:25:58;11.07;;;7.90;;
44995;SDS011;30729;49.486;10.792;2022-10-31T11:28:28;18.55;;;9.13;;
44995;SDS011;30729;49.486;10.792;2022-10-31T11:30:57;16.52;;;9.52;;
44995;SDS011;30729;49.486;10.792;2022-10-31T11:33:26;17.50;;;10.10;;
44995;SDS011;30729;49.486;10.792;2022-10-31T11:36:04;14.13;;;10.05;;
44995;SDS011;30729;49.486;10.792;2022-10-31T11:38:46;14.73;;;9.45;;
44995;SDS011;30729;49.486;10.792;2022-10-31T11:41:14;14.18;;;8.82;;
44995;SDS011;30729;49.486;10.792;2022-10-31T11:44:01;15.15;;;8.77;;
44995;SDS011;30729;49.486;10.792;2022-10-31T11:46:37;16.45;;;9.35;;
44995;SDS011;30729;49.486;10.792;2022-10-31T11:49:05;17.45;;;10.40;;
44995;SDS011;30729;49.486;10.792;2022-10-31T11:51:40;16.13;;;10.75;;
44995;SDS011;30729;49.486;10.792;2022-10-31T11:54:06;16.23;;;10.68;;
44995;SDS011;30729;49.486;10.792;2022-10-31T11:56:45;15.07;;;9.23;;
44995;SDS011;30729;49.486;10.792;2022-10-31T11:59:18;16.92;;;9.25;;
44995;SDS011;30729;49.486;10.792;2022-10-31T12:01:50;14.52;;;8.77;;
44995;SDS011;30729;49.486;10.792;2022-10-31T12:04:16;17.95;;;9.80;;
44995;SDS011;30729;49.486;10.792;2022-10-31T12:06:43;13.63;;;9.77;;
44995;SDS011;30729;49.486;10.792;2022-10-31T12:17:44;16.90;;;10.20;;
44995;SDS011;30729;49.486;10.792;2022-10-31T12:22:49;15.07;;;10.13;;
44995;SDS011;30729;49.486;10.792;2022-10-31T12:44:31;16.60;;;9.45;;
44995;SDS011;30729;49.486;10.792;2022-10-31T12:49:52;15.07;;;10.35;;
44995;SDS011;30729;49.486;10.792;2022-10-31T12:58:02;16.48;;;9.73;;
44995;SDS011;30729;49.486;10.792;2022-10-31T13:00:34;16.13;;;9.50;;
44995;SDS011;30729;49.486;10.792;2022-10-31T13:06:15;14.73;;;8.73;;
44995;SDS011;30729;49.486;10.792;2022-10-31T13:08:51;16.05;;;9.65;;
44995;SDS011;30729;49.486;10.792;2022-10-31T13:11:24;14.90;;;8.75;;
44995;SDS011;30729;49.486;10.792;2022-10-31T13:16:31;12.75;;;8.82;;
44995;SDS011;30729;49.486;10.792;2022-10-31T13:19:08;15.23;;;10.25;;
44995;SDS011;30729;49.486;10.792;2022-10-31T13:21:47;14.43;;;8.98;;
44995;SDS011;30729;49.486;10.792;2022-10-31T13:24:28;16.23;;;9.40;;
44995;SDS011;30729;49.486;10.792;2022-10-31T13:26:59;16.42;;;8.77;;
44995;SDS011;30729;49.486;10.792;2022-10-31T13:31:57;16.15;;;9.18;;
44995;SDS011;30729;49.486;10.792;2022-10-31T13:34:30;15.25;;;9.90;;
44995;SDS011;30729;49.486;10.792;2022-10-31T13:37:12;22.48;;;10.05;;
44995;SDS011;30729;49.486;10.792;2022-10-31T13:45:11;18.83;;;10.07;;
44995;SDS011;30729;49.486;10.792;2022-10-31T13:47:40;21.08;;;10.80;;
44995;SDS011;30729;49.486;10.792;2022-10-31T13:50:21;19.00;;;10.25;;
44995;SDS011;30729;49.486;10.792;2022-10-31T13:52:48;18.13;;;9.82;;
44995;SDS011;30729;49.486;10.792;2022-10-31T13:55:33;17.00;;;10.98;;
44995;SDS011;30729;49.486;10.792;2022-10-31T13:58:03;18.98;;;10.07;;
44995;SDS011;30729;49.486;10.792;2022-10-31T14:03:41;15.63;;;9.93;;
44995;SDS011;30729;49.486;10.792;2022-10-31T14:06:09;18.83;;;10.07;;
44995;SDS011;30729;49.486;10.792;2022-10-31T14:08:37;19.17;;;9.55;;
44995;SDS011;30729;49.486;10.792;2022-10-31T14:11:06;16.85;;;9.68;;
44995;SDS011;30729;49.486;10.792;2022-10-31T14:13:35;14.02;;;9.50;;
44995;SDS011;30729;49.486;10.792;2022-10-31T14:16:16;16.63;;;9.68;;
44995;SDS011;30729;49.486;10.792;2022-10-31T14:18:48;20.65;;;9.30;;
44995;SDS011;30729;49.486;10.792;2022-10-31T14:23:47;14.10;;;8.80;;
44995;SDS011;30729;49.486;10.792;2022-10-31T14:29:35;14.43;;;10.07;;
44995;SDS011;30729;49.486;10.792;2022-10-31T14:31:42;13.73;;;9.45;;
44995;SDS011;30729;49.486;10.792;2022-10-31T14:39:27;17.20;;;9.48;;
44995;SDS011;30729;49.486;10.792;2022-10-31T14:44:50;17.73;;;9.32;;
44995;SDS011;30729;49.486;10.792;2022-10-31T14:53:03;14.75;;;9.30;;
44995;SDS011;30729;49.486;10.792;2022-10-31T14:55:30;18.92;;;11.80;;
44995;SDS011;30729;49.486;10.792;2022-10-31T14:58:01;16.55;;;10.13;;
44995;SDS011;30729;49.486;10.792;2022-10-31T15:00:30;13.95;;;9.80;;
44995;SDS011;30729;49.486;10.792;2022-10-31T15:05:51;21.27;;;12.27;;
44995;SDS011;30729;49.486;10.792;2022-10-31T15:11:23;17.77;;;12.23;;
44995;SDS011;30729;49.486;10.792;2022-10-31T15:13:51;18.88;;;11.73;;
44995;SDS011;30729;49.486;10.792;2022-10-31T15:16:40;20.40;;;11.63;;
44995;SDS011;30729;49.486;10.792;2022-10-31T15:19:07;19.27;;;11.57;;
44995;SDS011;30729;49.486;10.792;2022-10-31T15:21:39;20.90;;;12.25;;
44995;SDS011;30729;49.486;10.792;2022-10-31T15:24:10;18.38;;;11.20;;
44995;SDS011;30729;49.486;10.792;2022-10-31T15:26:39;18.40;;;11.85;;
44995;SDS011;30729;49.486;10.792;2022-10-31T15:29:10;17.45;;;11.82;;
44995;SDS011;30729;49.486;10.792;2022-10-31T15:31:37;17.98;;;11.80;;
44995;SDS011;30729;49.486;10.792;2022-10-31T15:34:04;16.70;;;11.48;;
44995;SDS011;30729;49.486;10.792;2022-10-31T15:36:37;17.15;;;12.55;;
44995;SDS011;30729;49.486;10.792;2022-10-31T15:39:04;17.15;;;11.15;;
44995;SDS011;30729;49.486;10.792;2022-10-31T15:44:04;19.23;;;11.65;;
44995;SDS011;30729;49.486;10.792;2022-10-31T15:46:39;13.70;;;9.73;;
44995;SDS011;30729;49.486;10.792;2022-10-31T15:49:10;15.48;;;10.13;;
44995;SDS011;30729;49.486;10.792;2022-10-31T15:51:44;14.52;;;10.55;;
44995;SDS011;30729;49.486;10.792;2022-10-31T15:54:10;15.02;;;10.10;;
44995;SDS011;30729;49.486;10.792;2022-10-31T15:56:38;16.05;;;10.20;;
44995;SDS011;30729;49.486;10.792;2022-10-31T15:59:03;16.48;;;10.80;;
44995;SDS011;30729;49.486;10.792;2022-10-31T16:01:30;18.60;;;10.32;;
44995;SDS011;30729;49.486;10.792;2022-10-31T16:06:37;18.85;;;11.23;;
44995;SDS011;30729;49.486;10.792;2022-10-31T16:09:04;16.83;;;11.23;;
44995;SDS011;30729;49.486;10.792;2022-10-31T16:11:47;15.60;;;9.48;;
44995;SDS011;30729;49.486;10.792;2022-10-31T16:14:17;15.88;;;10.32;;
44995;SDS011;30729;49.486;10.792;2022-10-31T16:16:50;21.23;;;10.98;;
44995;SDS011;30729;49.486;10.792;2022-10-31T16:19:24;20.45;;;10.85;;
44995;SDS011;30729;49.486;10.792;2022-10-31T16:21:53;14.77;;;10.07;;
44995;SDS011;30729;49.486;10.792;2022-10-31T16:24:30;20.15;;;10.80;;
44995;SDS011;30729;49.486;10.792;2022-10-31T16:27:02;16.20;;;11.95;;
44995;SDS011;30729;49.486;10.792;2022-10-31T16:29:33;21.17;;;13.35;;
44995;SDS011;30729;49.486;10.792;2022-10-31T16:32:03;18.08;;;12.27;;
44995;SDS011;30729;49.486;10.792;2022-10-31T16:34:28;20.15;;;11.95;;
44995;SDS011;30729;49.486;10.792;2022-10-31T16:36:54;17.10;;;10.88;;
44995;SDS011;30729;49.486;10.792;2022-10-31T16:39:19;16.67;;;10.60;;
44995;SDS011;30729;49.486;10.792;2022-10-31T16:41:48;22.23;;;13.68;;
44995;SDS011;30729;49.486;10.792;2022-10-31T16:44:23;17.58;;;11.05;;
44995;SDS011;30729;49.486;10.792;2022-10-31T16:47:07;14.95;;;10.70;;
44995;SDS011;30729;49.486;10.792;2022-10-31T16:49:34;16.23;;;11.07;;
44995;SDS011;30729;49.486;10.792;2022-10-31T16:51:59;15.43;;;10.35;;
44995;SDS011;30729;49.486;10.792;2022-10-31T16:54:25;19.80;;;10.70;;
44995;SDS011;30729;49.486;10.792;2022-10-31T16:56:50;19.73;;;11.75;;
44995;SDS011;30729;49.486;10.792;2022-10-31T16:59:15;15.63;;;10.05;;
44995;SDS011;30729;49.486;10.792;2022-10-31T17:01:41;16.95;;;10.45;;
44995;SDS011;30729;49.486;10.792;2022-10-31T17:04:13;19.92;;;10.40;;
44995;SDS011;30729;49.486;10.792;2022-10-31T17:06:39;18.73;;;11.25;;
44995;SDS011;30729;49.486;10.792;2022-10-31T17:09:05;18.35;;;11.15;;
44995;SDS011;30729;49.486;10.792;2022-10-31T17:11:30;18.88;;;11.85;;
44995;SDS011;30729;49.486;10.792;2022-10-31T17:13:56;23.08;;;12.27;;
44995;SDS011;30729;49.486;10.792;2022-10-31T17:16:21;74.68;;;29.52;;